Time;durP1;ratioP1;P1;durP2;ratioP2;P2;SDS_P1;SDS_P2;PMS_P1;PMS_P2;Temp;Humidity;BMP_temperature;BMP_pressure;BME280_temperature;BME280_humidity;BME280_pressure;Samples;Min_cycle;Max_cycle;Signal;HPM_P1;HPM_P2
2024/02/04 00:00:01;;;;;;;2.83;2.50;;;;;;;9.53;73.20;96360.66;4914909;29;20211;-84
2024/02/04 00:02:33;;;;;;;3.40;2.93;;;;;;;9.58;73.17;96362.78;4921510;29;20241;-83
2024/02/04 00:04:59;;;;;;;2.73;2.53;;;;;;;9.56;73.11;96364.69;4923513;29;20229;-84
2024/02/04 00:07:26;;;;;;;2.80;2.60;;;;;;;9.53;73.06;96363.22;4922642;29;20198;-83
2024/02/04 00:09:53;;;;;;;3.10;2.80;;;;;;;9.56;73.07;96367.28;4923905;29;20223;-84
2024/02/04 00:12:22;;;;;;;2.87;2.67;;;;;;;9.35;73.95;96377.88;4908884;29;20246;-84
2024/02/04 00:14:54;;;;;;;3.07;2.87;;;;;;;9.37;74.24;96380.31;4913748;29;20234;-84
2024/02/04 00:17:20;;;;;;;2.93;2.40;;;;;;;9.45;73.59;96382.91;4921767;29;20199;-84
2024/02/04 00:19:48;;;;;;;3.37;3.07;;;;;;;9.40;74.15;96393.66;4923176;29;20684;-83
2024/02/04 00:22:18;;;;;;;3.20;2.90;;;;;;;9.34;74.24;96400.19;4922688;29;20222;-84
2024/02/04 00:24:44;;;;;;;3.10;2.80;;;;;;;9.34;74.30;96394.25;4923310;29;20217;-84
2024/02/04 00:27:10;;;;;;;2.53;2.33;;;;;;;9.42;74.19;96383.25;4922386;29;20202;-83
2024/02/04 00:29:36;;;;;;;3.30;3.00;;;;;;;9.48;74.02;96385.19;4922889;29;20210;-84
2024/02/04 00:32:05;;;;;;;2.97;2.63;;;;;;;9.43;74.07;96382.28;4923012;29;20472;-85
2024/02/04 00:34:32;;;;;;;3.73;2.90;;;;;;;9.28;74.59;96392.28;4920666;29;20279;-84
2024/02/04 00:37:02;;;;;;;2.93;2.73;;;;;;;9.28;74.85;96385.38;4923111;29;20218;-82
2024/02/04 00:39:31;;;;;;;3.10;2.90;;;;;;;9.22;74.89;96378.28;4921404;29;20206;-84
2024/02/04 00:41:58;;;;;;;3.00;2.80;;;;;;;9.23;75.01;96389.34;4921575;29;20613;-84
2024/02/04 00:44:24;;;;;;;3.20;2.90;;;;;;;9.16;75.75;96390.91;4922228;29;20214;-84
2024/02/04 00:46:50;;;;;;;3.20;2.90;;;;;;;9.07;76.29;96405.41;4921218;29;20202;-84
2024/02/04 00:49:17;;;;;;;3.20;3.00;;;;;;;9.06;76.27;96401.22;4919413;29;20672;-85
2024/02/04 00:51:43;;;;;;;3.00;2.80;;;;;;;9.05;76.98;96406.50;4921368;29;20505;-84
2024/02/04 00:54:11;;;;;;;3.00;2.80;;;;;;;9.06;76.82;96414.06;4921998;29;20222;-85
2024/02/04 00:56:38;;;;;;;3.83;3.37;;;;;;;9.10;76.52;96412.03;4914679;29;20293;-85
2024/02/04 00:59:04;;;;;;;3.63;3.33;;;;;;;9.13;76.18;96407.41;4920399;29;20206;-85
2024/02/04 01:01:30;;;;;;;4.27;3.70;;;;;;;9.14;76.55;96398.75;4921614;29;20226;-84
2024/02/04 01:03:57;;;;;;;5.07;3.90;;;;;;;9.15;76.20;96384.13;4921096;29;20202;-84
2024/02/04 01:06:23;;;;;;;3.90;3.60;;;;;;;9.13;76.36;96389.41;4919282;29;20957;-84
2024/02/04 01:08:50;;;;;;;4.57;4.17;;;;;;;8.95;77.15;96401.47;4919315;29;20214;-83
2024/02/04 01:11:18;;;;;;;4.73;4.33;;;;;;;8.92;77.50;96412.03;4916063;29;20330;-84
2024/02/04 01:13:44;;;;;;;4.67;4.27;;;;;;;8.80;78.20;96398.59;4902497;29;20226;-83
2024/02/04 01:16:10;;;;;;;4.20;3.90;;;;;;;8.85;78.14;96403.31;4908985;29;20206;-84
2024/02/04 01:18:37;;;;;;;4.17;3.80;;;;;;;8.76;78.71;96407.53;4920688;29;20210;-85
2024/02/04 01:21:03;;;;;;;4.60;4.20;;;;;;;8.77;78.41;96400.63;4919910;29;20246;-84
2024/02/04 01:23:30;;;;;;;4.00;3.70;;;;;;;8.73;78.61;96399.31;4918191;29;20213;-84
2024/02/04 01:25:56;;;;;;;4.73;4.23;;;;;;;8.77;78.88;96416.03;4920084;29;20747;-83
2024/02/04 01:28:24;;;;;;;3.97;3.67;;;;;;;8.73;78.51;96396.75;4919867;29;20214;-84
2024/02/04 01:30:50;;;;;;;4.23;3.83;;;;;;;8.73;78.33;96397.56;4920025;29;20202;-85
2024/02/04 01:33:17;;;;;;;4.03;3.73;;;;;;;8.62;78.87;96395.19;4919649;29;20731;-84
2024/02/04 01:35:43;;;;;;;3.60;3.30;;;;;;;8.50;79.33;96409.16;4919998;29;20198;-84
2024/02/04 01:38:10;;;;;;;4.10;3.80;;;;;;;8.52;79.58;96422.66;4918191;29;20202;-83
2024/02/04 01:40:36;;;;;;;4.00;3.70;;;;;;;8.53;79.60;96416.56;4919080;29;20218;-84
2024/02/04 01:43:03;;;;;;;4.63;3.50;;;;;;;8.60;79.07;96402.22;4920249;29;20227;-85
2024/02/04 01:45:30;;;;;;;4.00;3.70;;;;;;;8.66;78.62;96394.75;4919852;29;20229;-85
2024/02/04 01:47:57;;;;;;;4.10;3.70;;;;;;;8.73;78.11;96394.16;4919748;29;20205;-85
2024/02/04 01:50:24;;;;;;;3.80;3.50;;;;;;;8.75;78.08;96390.50;4919574;29;20254;-82
2024/02/04 01:52:52;;;;;;;3.73;3.43;;;;;;;8.75;77.73;96402.53;4911797;29;20238;-84
2024/02/04 01:55:19;;;;;;;4.13;3.73;;;;;;;8.71;77.81;96411.47;4918305;29;20216;-84
2024/02/04 01:57:48;;;;;;;4.00;3.70;;;;;;;8.64;78.07;96412.06;4920435;29;20218;-84
2024/02/04 02:00:14;;;;;;;4.10;3.70;;;;;;;8.77;77.28;96395.50;4919178;29;20237;-85
2024/02/04 02:02:42;;;;;;;4.00;3.60;;;;;;;8.81;77.04;96373.72;4919609;29;20226;-84
2024/02/04 02:05:09;;;;;;;4.00;3.60;;;;;;;8.75;76.83;96369.97;4918441;29;20569;-82
2024/02/04 02:07:35;;;;;;;3.90;3.60;;;;;;;8.61;77.58;96379.00;4918890;29;20209;-84
2024/02/04 02:10:05;;;;;;;3.70;3.40;;;;;;;8.62;77.29;96374.66;4917211;29;20210;-84
2024/02/04 02:12:36;;;;;;;3.70;3.40;;;;;;;8.57;77.38;96377.66;4916114;29;20229;-85
2024/02/04 02:15:12;;;;;;;3.60;3.30;;;;;;;8.68;77.11;96360.41;4919166;29;20613;-84
2024/02/04 02:17:49;;;;;;;3.97;3.50;;;;;;;8.63;77.07;96359.13;4899810;29;20203;-83
2024/02/04 02:20:22;;;;;;;4.23;3.93;;;;;;;8.62;77.07;96357.50;4909011;29;20245;-84
2024/02/04 02:22:50;;;;;;;3.33;3.13;;;;;;;8.65;77.16;96367.47;4901227;29;20230;-84
2024/02/04 02:25:21;;;;;;;4.07;3.70;;;;;;;8.70;76.93;96368.78;4900360;29;20198;-83
2024/02/04 02:27:48;;;;;;;3.73;3.43;;;;;;;8.69;76.84;96370.53;4916665;29;20214;-84
2024/02/04 02:30:15;;;;;;;4.07;3.73;;;;;;;8.80;76.43;96354.13;4919069;29;20266;-83
2024/02/04 02:32:42;;;;;;;3.30;3.00;;;;;;;8.89;76.31;96332.69;4918879;29;20230;-84
2024/02/04 02:35:08;;;;;;;3.73;3.43;;;;;;;8.95;75.59;96319.28;4918726;29;20226;-85
2024/02/04 02:37:41;;;;;;;3.73;3.43;;;;;;;8.96;74.84;96301.16;4914366;29;20218;-83
2024/02/04 02:40:12;;;;;;;3.70;3.40;;;;;;;8.93;74.72;96285.22;4917889;29;20587;-84
2024/02/04 02:42:43;;;;;;;3.53;3.23;;;;;;;9.02;74.82;96281.78;4916237;29;20229;-83
2024/02/04 02:45:12;;;;;;;3.20;2.93;;;;;;;8.98;74.33;96271.00;4917449;29;20672;-84
2024/02/04 02:47:39;;;;;;;3.43;3.13;;;;;;;8.90;74.58;96278.63;4908665;29;20206;-84
2024/02/04 02:50:07;;;;;;;3.47;3.17;;;;;;;8.92;74.77;96269.00;4910630;29;20218;-83
2024/02/04 02:52:33;;;;;;;3.50;3.20;;;;;;;8.87;74.80;96276.34;4916982;29;20777;-84
2024/02/04 02:54:59;;;;;;;3.27;2.97;;;;;;;8.87;74.90;96285.81;4918140;29;20226;-84
2024/02/04 02:57:26;;;;;;;4.07;3.67;;;;;;;8.88;74.99;96290.00;4917948;29;20218;-84
2024/02/04 02:59:54;;;;;;;3.70;3.40;;;;;;;8.96;74.66;96275.47;4916504;29;20215;-85
2024/02/04 03:02:20;;;;;;;3.43;3.07;;;;;;;9.05;74.10;96283.22;4917344;29;20222;-84
2024/02/04 03:04:46;;;;;;;3.40;3.10;;;;;;;9.10;73.64;96271.53;4918434;29;20210;-83
2024/02/04 03:07:13;;;;;;;3.70;3.40;;;;;;;9.15;73.70;96269.34;4918055;29;20206;-84
2024/02/04 03:09:39;;;;;;;3.20;2.90;;;;;;;9.10;73.96;96283.56;4919159;29;20210;-84
2024/02/04 03:12:07;;;;;;;3.43;2.87;;;;;;;9.12;74.03;96284.25;4906478;29;20722;-84
2024/02/04 03:14:33;;;;;;;3.43;2.73;;;;;;;9.06;74.07;96293.34;4899870;29;20747;-85
2024/02/04 03:17:01;;;;;;;2.80;2.57;;;;;;;9.08;74.20;96290.63;4917321;29;20226;-84
2024/02/04 03:19:27;;;;;;;3.17;2.80;;;;;;;9.05;74.15;96301.19;4918147;29;20283;-84
2024/02/04 03:21:53;;;;;;;3.33;2.93;;;;;;;9.06;74.21;96300.25;4918024;29;20222;-84
2024/02/04 03:24:20;;;;;;;2.97;2.67;;;;;;;9.15;73.52;96289.09;4917164;29;20684;-84
2024/02/04 03:26:46;;;;;;;3.10;2.80;;;;;;;9.16;73.41;96281.22;4918099;29;20206;-84
2024/02/04 03:29:13;;;;;;;2.97;2.67;;;;;;;9.16;73.30;96283.00;4917188;29;20684;-84
2024/02/04 03:31:39;;;;;;;2.80;2.60;;;;;;;9.18;73.26;96281.09;4916643;29;20226;-83
2024/02/04 03:34:07;;;;;;;3.23;2.90;;;;;;;9.05;73.44;96272.94;4921229;29;20940;-84
2024/02/04 03:36:33;;;;;;;3.23;2.97;;;;;;;9.09;73.40;96303.31;4921241;29;20206;-85
2024/02/04 03:38:59;;;;;;;3.10;2.80;;;;;;;8.99;74.10;96305.19;4920712;29;20206;-84
2024/02/04 03:41:26;;;;;;;3.07;2.70;;;;;;;8.98;74.03;96303.56;4920374;29;20230;-82
2024/02/04 03:43:52;;;;;;;3.20;2.90;;;;;;;8.90;74.40;96298.34;4920255;29;20206;-84
2024/02/04 03:46:19;;;;;;;3.03;2.80;;;;;;;8.97;74.23;96289.91;4914744;29;20206;-84
2024/02/04 03:48:45;;;;;;;3.00;2.70;;;;;;;8.86;74.93;96297.84;4919410;29;20214;-84
2024/02/04 03:51:17;;;;;;;3.30;3.00;;;;;;;8.89;74.71;96300.13;4920605;29;20811;-83
2024/02/04 03:53:44;;;;;;;2.87;2.67;;;;;;;8.94;74.71;96303.06;4920996;29;20244;-85
2024/02/04 03:56:10;;;;;;;2.93;2.70;;;;;;;8.94;74.98;96313.31;4921595;29;20265;-84
2024/02/04 03:58:37;;;;;;;2.53;2.33;;;;;;;8.91;74.96;96317.94;4921801;29;20261;-84
2024/02/04 04:01:03;;;;;;;2.50;2.30;;;;;;;8.94;75.13;96303.06;4920483;29;20250;-85
2024/02/04 04:03:30;;;;;;;2.67;2.47;;;;;;;8.95;75.19;96309.81;4918984;29;20210;-84
2024/02/04 04:05:56;;;;;;;2.77;2.57;;;;;;;9.07;74.58;96310.38;4920632;29;20214;-82
2024/02/04 04:08:24;;;;;;;3.37;2.40;;;;;;;9.02;74.94;96307.47;4921091;29;20214;-85
2024/02/04 04:10:50;;;;;;;2.30;2.10;;;;;;;9.03;74.92;96311.66;4921119;29;20739;-84
2024/02/04 04:13:17;;;;;;;2.50;2.30;;;;;;;8.97;75.00;96305.34;4919968;29;20285;-85
2024/02/04 04:15:43;;;;;;;2.70;2.50;;;;;;;8.99;74.94;96298.28;4920482;29;20229;-84
2024/02/04 04:18:11;;;;;;;2.70;2.50;;;;;;;9.05;75.50;96337.16;4920516;29;20560;-84
2024/02/04 04:20:37;;;;;;;2.83;2.63;;;;;;;8.94;76.97;96369.03;4919342;29;20206;-82
2024/02/04 04:23:04;;;;;;;2.63;2.43;;;;;;;8.98;77.23;96385.75;4920769;29;20925;-84
2024/02/04 04:25:33;;;;;;;2.57;2.37;;;;;;;8.89;78.14;96391.75;4920121;29;20209;-85
2024/02/04 04:27:59;;;;;;;2.70;2.50;;;;;;;8.93;78.81;96411.06;4920117;29;20210;-82
2024/02/04 04:30:25;;;;;;;2.33;2.13;;;;;;;8.91;79.32;96411.22;4920319;29;20210;-84
2024/02/04 04:32:52;;;;;;;3.07;2.40;;;;;;;8.91;80.44;96441.22;4919783;29;20218;-84
2024/02/04 04:35:18;;;;;;;2.50;2.30;;;;;;;8.75;80.96;96443.63;4917608;29;20237;-84
2024/02/04 04:37:45;;;;;;;2.50;2.17;;;;;;;8.62;82.51;96469.63;4919195;29;20203;-84
2024/02/04 04:40:12;;;;;;;2.20;2.00;;;;;;;8.60;82.17;96464.66;4918770;29;20210;-84
2024/02/04 04:42:40;;;;;;;2.40;2.20;;;;;;;8.62;82.45;96478.16;4910865;29;20225;-84
2024/02/04 04:45:08;;;;;;;2.37;2.07;;;;;;;8.72;81.64;96467.00;4919187;29;20202;-83
2024/02/04 04:47:35;;;;;;;2.33;2.13;;;;;;;8.73;80.76;96448.09;4919440;29;20238;-84
2024/02/04 04:50:02;;;;;;;2.30;2.10;;;;;;;8.78;80.67;96456.19;4918426;29;20210;-83
2024/02/04 04:52:28;;;;;;;2.63;1.90;;;;;;;8.75;79.81;96415.38;4916831;29;20237;-84
2024/02/04 04:54:55;;;;;;;2.10;1.93;;;;;;;8.79;80.19;96427.78;4920278;29;20640;-83
2024/02/04 04:57:21;;;;;;;2.77;1.90;;;;;;;8.86;79.16;96408.25;4919898;29;20210;-84
2024/02/04 04:59:49;;;;;;;2.30;2.10;;;;;;;8.84;79.56;96422.22;4918915;29;20339;-84
2024/02/04 05:02:16;;;;;;;2.97;1.90;;;;;;;8.87;78.52;96389.34;4919784;29;20222;-84
2024/02/04 05:04:43;;;;;;;3.33;1.93;;;;;;;8.90;78.09;96393.38;4920139;29;20729;-85
2024/02/04 05:07:10;;;;;;;1.80;1.70;;;;;;;8.91;77.29;96370.13;4918777;29;20209;-84
2024/02/04 05:09:36;;;;;;;2.13;1.90;;;;;;;8.91;77.58;96371.88;4917973;29;20202;-85
2024/02/04 05:12:03;;;;;;;1.83;1.70;;;;;;;8.95;77.65;96366.31;4914617;29;20225;-84
2024/02/04 05:14:30;;;;;;;1.90;1.70;;;;;;;8.96;77.15;96359.41;4918807;29;20226;-84
2024/02/04 05:16:57;;;;;;;2.07;1.87;;;;;;;8.93;76.37;96321.19;4918569;29;20210;-84
2024/02/04 05:19:24;;;;;;;2.17;1.80;;;;;;;8.92;76.73;96322.13;4918582;29;20210;-83
2024/02/04 05:21:50;;;;;;;1.80;1.70;;;;;;;8.94;77.09;96333.06;4916778;29;20226;-85
2024/02/04 05:24:17;;;;;;;2.20;2.00;;;;;;;8.91;76.63;96316.19;4917110;29;20205;-85
2024/02/04 05:26:43;;;;;;;2.17;1.63;;;;;;;8.91;77.38;96333.34;4918397;29;20570;-83
2024/02/04 05:29:09;;;;;;;2.73;2.00;;;;;;;8.96;77.44;96339.69;4918496;29;20206;-85
2024/02/04 05:31:41;;;;;;;1.90;1.70;;;;;;;9.02;78.09;96358.84;4918300;29;20586;-83
2024/02/04 05:34:09;;;;;;;2.20;2.00;;;;;;;9.03;78.44;96390.47;4918252;29;20206;-85
2024/02/04 05:36:35;;;;;;;4.47;2.13;;;;;;;9.00;79.07;96412.09;4917897;29;20688;-84
2024/02/04 05:39:10;;;;;;;2.63;2.00;;;;;;;8.98;79.76;96424.28;4904323;29;20677;-83
2024/02/04 05:41:36;;;;;;;3.50;2.10;;;;;;;9.06;80.32;96436.38;4913104;29;20235;-83
2024/02/04 05:44:03;;;;;;;4.40;2.20;;;;;;;9.05;81.89;96455.31;4917938;29;20588;-85
2024/02/04 05:46:29;;;;;;;4.07;2.33;;;;;;;9.03;82.46;96468.34;4917905;29;20203;-85
2024/02/04 05:48:55;;;;;;;2.93;2.50;;;;;;;9.07;82.62;96455.97;4917322;29;20301;-84
2024/02/04 05:51:23;;;;;;;4.60;2.47;;;;;;;8.99;84.79;96493.50;4917029;29;20234;-84
2024/02/04 05:53:50;;;;;;;2.83;2.47;;;;;;;8.93;84.98;96499.19;4915159;29;20547;-85
2024/02/04 05:56:16;;;;;;;2.80;2.50;;;;;;;8.97;85.52;96526.22;4911031;29;20226;-84
2024/02/04 05:58:43;;;;;;;5.10;2.30;;;;;;;8.97;87.42;96566.50;4916957;29;20265;-83
2024/02/04 06:01:09;;;;;;;5.67;2.60;;;;;;;8.95;87.28;96551.25;4917492;29;20289;-84
2024/02/04 06:03:36;;;;;;;3.30;2.50;;;;;;;8.98;87.16;96553.53;4916290;29;20210;-85
2024/02/04 06:06:02;;;;;;;2.97;2.43;;;;;;;8.98;87.62;96560.41;4916757;29;20202;-85
2024/02/04 06:08:30;;;;;;;4.50;2.60;;;;;;;8.96;87.92;96570.84;4917217;29;20220;-83
2024/02/04 06:10:57;;;;;;;4.13;2.33;;;;;;;9.00;87.49;96569.59;4914454;29;20227;-84
2024/02/04 06:13:23;;;;;;;3.07;2.40;;;;;;;8.98;87.33;96563.81;4909606;29;20586;-86
2024/02/04 06:15:50;;;;;;;4.17;2.33;;;;;;;8.98;87.04;96553.53;4916202;29;20294;-85
2024/02/04 06:18:17;;;;;;;2.70;2.40;;;;;;;8.89;87.10;96549.22;4915870;29;20202;-85
2024/02/04 06:20:43;;;;;;;2.77;2.47;;;;;;;8.88;87.40;96562.22;4915089;29;20206;-85
2024/02/04 06:23:10;;;;;;;5.70;2.60;;;;;;;8.90;87.05;96552.59;4916628;29;20226;-85
2024/02/04 06:25:38;;;;;;;2.23;1.97;;;;;;;8.98;86.80;96547.56;4917294;29;20561;-84
2024/02/04 06:28:08;;;;;;;2.60;2.40;;;;;;;8.98;88.31;96576.63;4916266;29;20202;-85
2024/02/04 06:30:34;;;;;;;4.53;2.70;;;;;;;8.94;88.07;96567.59;4918648;29;20217;-85
2024/02/04 06:33:01;;;;;;;3.70;2.60;;;;;;;9.02;86.88;96548.91;4917181;29;20293;-85
2024/02/04 06:35:27;;;;;;;3.93;2.43;;;;;;;9.08;85.77;96532.09;4908364;29;20229;-85
2024/02/04 06:37:54;;;;;;;4.90;2.30;;;;;;;9.13;84.85;96505.03;4919464;29;20198;-85
2024/02/04 06:40:20;;;;;;;3.90;2.27;;;;;;;9.06;84.96;96508.31;4917385;29;20226;-85
2024/02/04 06:42:48;;;;;;;3.90;2.57;;;;;;;9.11;85.77;96537.75;4919892;29;20242;-86
2024/02/04 06:45:14;;;;;;;3.37;2.23;;;;;;;9.14;85.69;96545.19;4915091;29;20201;-85
2024/02/04 06:47:44;;;;;;;2.97;2.50;;;;;;;9.16;83.94;96520.16;4909924;29;20418;-85
2024/02/04 06:50:13;;;;;;;6.30;2.40;;;;;;;9.18;84.59;96543.16;4907471;29;20221;-84
2024/02/04 06:52:40;;;;;;;3.10;2.80;;;;;;;9.22;84.27;96527.31;4907645;29;20229;-85
2024/02/04 06:55:07;;;;;;;4.40;3.20;;;;;;;9.15;84.14;96533.16;4907973;29;20234;-86
2024/02/04 06:57:33;;;;;;;5.30;3.10;;;;;;;9.16;83.45;96527.88;4909586;29;20210;-85
2024/02/04 07:00:01;;;;;;;4.83;3.00;;;;;;;9.17;83.28;96526.13;4905181;29;20198;-86
2024/02/04 07:02:28;;;;;;;5.27;2.87;;;;;;;9.18;83.20;96530.31;4910291;29;20226;-84
2024/02/04 07:04:54;;;;;;;4.00;2.80;;;;;;;9.21;83.01;96509.47;4904552;29;20218;-85
2024/02/04 07:07:21;;;;;;;3.23;2.93;;;;;;;9.06;83.03;96495.47;4899442;29;20202;-85
2024/02/04 07:09:47;;;;;;;4.80;2.83;;;;;;;9.03;82.72;96504.28;4917575;29;20207;-85
2024/02/04 07:12:13;;;;;;;3.30;2.93;;;;;;;9.03;82.76;96486.31;4913797;29;20268;-85
2024/02/04 07:14:40;;;;;;;4.03;3.30;;;;;;;9.06;82.39;96480.06;4918085;29;20687;-86
2024/02/04 07:17:08;;;;;;;4.43;3.00;;;;;;;9.03;82.20;96470.09;4914787;29;20217;-85
2024/02/04 07:19:35;;;;;;;6.30;3.40;;;;;;;9.03;81.62;96450.34;4917624;29;20316;-85
2024/02/04 07:22:01;;;;;;;4.47;3.57;;;;;;;9.08;81.34;96455.84;4916026;29;20229;-85
2024/02/04 07:24:31;;;;;;;5.40;3.63;;;;;;;9.17;80.51;96433.63;4920712;29;20225;-85
2024/02/04 07:26:57;;;;;;;6.10;4.13;;;;;;;9.20;80.30;96431.56;4937666;29;20205;-85
2024/02/04 07:29:24;;;;;;;4.20;3.80;;;;;;;9.16;79.55;96426.88;4920917;29;20681;-86
2024/02/04 07:31:50;;;;;;;4.63;3.63;;;;;;;9.16;80.19;96440.50;4915784;29;20222;-85
2024/02/04 07:34:18;;;;;;;4.47;4.00;;;;;;;9.15;79.41;96420.09;4917241;29;20206;-85
2024/02/04 07:36:46;;;;;;;4.60;4.00;;;;;;;9.15;79.04;96400.38;4924513;29;20916;-85
2024/02/04 07:39:15;;;;;;;6.43;4.10;;;;;;;9.05;78.08;96378.25;4938807;29;20220;-84
2024/02/04 07:41:42;;;;;;;5.63;4.00;;;;;;;8.99;78.45;96388.19;4937386;29;20229;-86
2024/02/04 07:44:08;;;;;;;6.43;5.10;;;;;;;9.02;78.63;96393.97;4937929;29;20205;-85
2024/02/04 07:46:35;;;;;;;5.50;3.90;;;;;;;9.09;78.49;96400.94;4937328;29;20198;-85
2024/02/04 07:49:01;;;;;;;6.53;3.97;;;;;;;9.13;78.32;96399.69;4931571;29;20636;-85
2024/02/04 07:51:29;;;;;;;7.07;3.90;;;;;;;9.22;78.13;96380.03;4918513;29;20245;-85
2024/02/04 07:53:56;;;;;;;5.83;4.10;;;;;;;9.27;77.18;96352.91;4918781;29;20222;-87
2024/02/04 07:56:22;;;;;;;6.87;3.90;;;;;;;9.29;76.61;96334.78;4918447;29;20222;-85
2024/02/04 07:58:49;;;;;;;6.93;3.80;;;;;;;9.41;76.15;96331.03;4919231;29;20210;-84
2024/02/04 08:01:15;;;;;;;5.30;3.90;;;;;;;9.52;75.91;96324.81;4917811;29;20640;-86
2024/02/04 08:03:41;;;;;;;8.50;3.97;;;;;;;9.61;75.54;96311.88;4918126;29;20205;-84
2024/02/04 08:06:08;;;;;;;8.00;4.37;;;;;;;9.69;74.67;96269.94;4916366;29;20202;-85
2024/02/04 08:08:35;;;;;;;6.20;3.60;;;;;;;9.68;74.18;96256.28;4917537;29;20277;-85
2024/02/04 08:11:02;;;;;;;5.70;3.40;;;;;;;9.46;74.34;96267.09;4924108;29;20202;-85
2024/02/04 08:13:28;;;;;;;4.33;3.23;;;;;;;9.52;74.46;96275.97;4901985;29;20206;-85
2024/02/04 08:15:55;;;;;;;5.87;3.20;;;;;;;9.49;74.76;96294.28;4925919;29;20237;-86
2024/02/04 08:18:21;;;;;;;6.17;3.13;;;;;;;9.56;74.91;96308.13;4916800;29;20304;-85
2024/02/04 08:20:47;;;;;;;6.23;2.77;;;;;;;9.73;74.75;96314.16;4916313;29;20202;-85
2024/02/04 08:23:16;;;;;;;4.00;3.00;;;;;;;9.79;73.65;96283.50;4915685;29;20230;-85
2024/02/04 08:25:44;;;;;;;3.97;3.00;;;;;;;9.81;73.64;96276.44;4916224;29;20207;-85
2024/02/04 08:28:13;;;;;;;4.37;2.73;;;;;;;9.80;73.40;96250.88;4909399;29;20225;-86
2024/02/04 08:30:38;;;;;;;4.67;2.80;;;;;;;9.81;73.14;96242.22;4916724;29;20233;-85
2024/02/04 08:33:05;;;;;;;4.50;3.00;;;;;;;9.94;72.95;96237.44;4917072;29;20264;-86
2024/02/04 08:35:33;;;;;;;3.10;2.77;;;;;;;9.94;72.51;96230.50;4917333;29;20230;-85
2024/02/04 08:38:02;;;;;;;4.90;2.97;;;;;;;10.14;72.07;96222.53;4921462;29;20206;-85
2024/02/04 08:40:31;;;;;;;5.93;2.90;;;;;;;10.23;71.22;96183.78;4915714;29;20222;-85
2024/02/04 08:42:59;;;;;;;4.43;2.70;;;;;;;10.23;70.86;96167.53;4916604;29;20241;-86
2024/02/04 08:45:25;;;;;;;3.17;2.37;;;;;;;10.21;71.09;96166.91;4916252;29;20214;-85
2024/02/04 08:47:52;;;;;;;3.73;2.70;;;;;;;10.24;70.52;96153.72;4916524;29;20673;-85
2024/02/04 08:50:19;;;;;;;6.30;2.67;;;;;;;10.24;70.84;96162.25;4916655;29;20202;-85
2024/02/04 08:52:45;;;;;;;4.43;2.70;;;;;;;10.51;70.32;96162.91;4916329;29;20234;-84
2024/02/04 08:55:12;;;;;;;5.70;2.73;;;;;;;10.44;69.56;96115.59;4914155;29;20230;-85
2024/02/04 08:57:38;;;;;;;3.53;2.73;;;;;;;10.48;69.52;96111.72;4918231;29;20572;-85
2024/02/04 09:00:11;;;;;;;3.17;2.33;;;;;;;10.66;69.12;96105.44;4918148;29;20202;-84
2024/02/04 09:02:38;;;;;;;4.97;3.10;;;;;;;10.86;68.54;96079.31;4918697;29;20225;-85
2024/02/04 09:05:07;;;;;;;4.47;2.80;;;;;;;10.75;67.63;96017.84;4917937;29;20697;-85
2024/02/04 09:07:33;;;;;;;4.20;2.77;;;;;;;10.85;67.93;96026.16;4917930;29;20205;-85
2024/02/04 09:10:00;;;;;;;3.27;2.53;;;;;;;10.84;67.10;96007.34;4916908;29;20210;-85
2024/02/04 09:12:26;;;;;;;4.07;2.93;;;;;;;11.03;66.80;95990.66;4911179;29;20222;-85
2024/02/04 09:14:59;;;;;;;5.10;2.93;;;;;;;11.04;66.36;95984.53;4914749;29;20202;-85
2024/02/04 09:17:26;;;;;;;6.30;3.50;;;;;;;11.05;66.43;95979.22;4918967;29;20270;-85
2024/02/04 09:19:53;;;;;;;4.37;3.13;;;;;;;11.12;66.21;95976.78;4920049;29;20563;-84
2024/02/04 09:22:20;;;;;;;5.90;3.10;;;;;;;11.19;65.84;95951.09;4911265;29;20222;-84
2024/02/04 09:24:46;;;;;;;3.40;2.80;;;;;;;11.24;65.93;95956.56;4919510;29;20206;-85
2024/02/04 09:27:13;;;;;;;5.57;3.00;;;;;;;11.16;65.65;95956.63;4918008;29;20246;-84
2024/02/04 09:29:39;;;;;;;4.53;3.00;;;;;;;11.10;66.65;95968.41;4918650;29;20278;-81
2024/02/04 09:32:06;;;;;;;2.90;2.60;;;;;;;11.07;66.44;95986.78;4918449;29;20226;-81
2024/02/04 09:34:34;;;;;;;5.10;3.13;;;;;;;10.95;66.72;95981.22;4918976;29;20229;-82
2024/02/04 09:37:01;;;;;;;5.43;3.20;;;;;;;10.87;66.72;95985.59;4928647;29;20226;-83
2024/02/04 09:39:29;;;;;;;6.10;3.10;;;;;;;10.74;67.09;95996.44;4931501;29;20218;-84
2024/02/04 09:41:56;;;;;;;6.27;2.97;;;;;;;10.66;67.46;96023.03;4921090;29;20305;-85
2024/02/04 09:44:38;;;;;;;3.77;3.33;;;;;;;10.58;67.60;96038.47;4915190;29;20203;-89
2024/02/04 09:50:40;;;;;;;5.83;4.00;;;;;;;10.45;68.30;96071.66;4913322;29;20209;-89
2024/02/04 09:53:18;;;;;;;5.10;3.17;;;;;;;10.54;68.12;96069.91;4917843;29;20253;-84
2024/02/04 09:55:45;;;;;;;4.37;3.20;;;;;;;10.57;68.46;96070.38;4919579;29;20237;-84
2024/02/04 09:58:12;;;;;;;4.53;3.70;;;;;;;10.53;68.36;96083.72;4917163;29;20198;-85
2024/02/04 10:00:44;;;;;;;6.00;3.60;;;;;;;10.39;68.26;96083.41;4916004;29;20214;-84
2024/02/04 10:04:00;;;;;;;6.47;3.33;;;;;;;10.42;68.90;96096.94;4910496;29;20233;-89
2024/02/04 10:10:13;;;;;;;5.33;3.47;;;;;;;10.59;68.60;96114.75;4895010;29;20261;-87
2024/02/04 10:25:33;;;;;;;6.47;3.50;;;;;;;10.77;68.19;96091.41;4800756;29;20217;-84
2024/02/04 10:29:01;;;;;;;6.30;3.40;;;;;;;10.67;68.10;96085.63;4915091;29;20234;-88
2024/02/04 10:31:28;;;;;;;4.33;3.40;;;;;;;10.63;68.15;96098.03;4910689;29;20836;-83
2024/02/04 10:33:55;;;;;;;4.20;3.27;;;;;;;10.81;68.31;96092.66;4920109;29;20210;-83
2024/02/04 10:36:22;;;;;;;4.10;3.60;;;;;;;11.06;67.31;96047.81;4921779;29;20225;-83
2024/02/04 10:38:48;;;;;;;4.10;3.70;;;;;;;11.16;66.56;96021.81;4915351;29;20201;-84
2024/02/04 10:41:18;;;;;;;4.40;3.67;;;;;;;11.14;66.23;95989.50;4914146;29;20225;-85
2024/02/04 10:43:45;;;;;;;6.63;3.30;;;;;;;11.06;66.51;96000.63;4920982;29;20213;-86
2024/02/04 10:46:17;;;;;;;4.20;3.50;;;;;;;11.27;66.43;96013.72;4919765;29;20198;-85
2024/02/04 10:48:45;;;;;;;5.43;3.57;;;;;;;11.53;66.23;96015.19;4921997;29;20212;-84
2024/02/04 10:51:14;;;;;;;5.97;3.37;;;;;;;11.52;65.47;95974.91;4920932;29;20222;-84
2024/02/04 10:53:45;;;;;;;4.93;3.23;;;;;;;11.49;65.75;95995.88;4920247;29;20258;-85
2024/02/04 10:56:20;;;;;;;3.70;3.17;;;;;;;11.32;66.21;95985.69;4920934;29;20218;-84
2024/02/04 10:58:48;;;;;;;4.97;2.93;;;;;;;11.21;66.69;96013.59;4920407;29;20197;-84
2024/02/04 11:01:15;;;;;;;8.97;3.10;;;;;;;11.32;66.71;96020.97;4919156;29;20205;-84
2024/02/04 11:03:42;;;;;;;3.23;2.77;;;;;;;11.51;66.35;96007.63;4918463;29;20683;-85
2024/02/04 11:06:11;;;;;;;4.80;2.90;;;;;;;11.63;66.69;96015.75;4919860;29;20289;-84
2024/02/04 11:08:39;;;;;;;4.50;2.40;;;;;;;11.67;66.20;95983.50;4919961;29;20230;-85
2024/02/04 11:11:05;;;;;;;3.80;2.50;;;;;;;11.79;65.94;95982.13;4915757;29;20609;-84
2024/02/04 11:13:34;;;;;;;3.50;2.30;;;;;;;11.92;66.27;95979.78;4914853;29;20206;-85
2024/02/04 11:16:05;;;;;;;3.13;1.90;;;;;;;12.17;65.46;95946.78;4915486;29;20239;-86
2024/02/04 11:19:05;;;;;;;3.47;1.90;;;;;;;12.50;64.15;95895.59;4916956;29;20217;-84
2024/02/04 11:22:01;;;;;;;3.37;2.13;;;;;;;12.89;62.60;95803.97;4906917;29;20363;-84
2024/02/04 11:24:45;;;;;;;2.43;1.70;;;;;;;13.25;61.41;95755.59;4918526;29;20880;-85
2024/02/04 11:27:13;;;;;;;3.23;1.63;;;;;;;13.46;60.69;95690.06;4918685;29;20221;-83
2024/02/04 11:33:54;;;;;;;2.17;1.80;;;;;;;13.54;59.55;95638.16;4861471;29;20226;-87
2024/02/04 11:36:32;;;;;;;2.70;1.57;;;;;;;13.66;59.23;95599.59;4833911;29;20230;-88
2024/02/04 11:38:59;;;;;;;2.67;1.70;;;;;;;13.40;59.27;95590.75;4908117;29;20214;-83
2024/02/04 11:41:27;;;;;;;2.40;1.67;;;;;;;13.03;59.81;95611.81;4913385;29;20268;-84
2024/02/04 11:43:54;;;;;;;2.63;1.80;;;;;;;12.90;60.71;95653.06;4916588;29;20203;-84
2024/02/04 11:46:21;;;;;;;2.07;1.50;;;;;;;12.70;61.32;95674.41;4916831;29;20234;-83
2024/02/04 11:48:54;;;;;;;5.93;1.77;;;;;;;12.59;63.01;95778.25;4912835;29;20207;-81
2024/02/04 11:51:24;;;;;;;6.00;1.60;;;;;;;12.63;63.49;95809.69;4912305;29;20782;-82
2024/02/04 11:53:51;;;;;;;3.47;1.70;;;;;;;12.67;64.88;95865.97;4915974;29;20762;-82
2024/02/04 11:56:19;;;;;;;2.23;1.50;;;;;;;12.73;62.74;95759.28;4918475;29;20708;-83
2024/02/04 11:58:47;;;;;;;4.30;1.43;;;;;;;12.68;62.03;95735.03;4920784;29;20656;-84
2024/02/04 12:01:13;;;;;;;3.03;1.70;;;;;;;12.65;61.80;95710.34;4919863;29;20198;-84
2024/02/04 12:03:40;;;;;;;4.47;1.50;;;;;;;12.31;62.07;95703.31;4919503;29;20759;-83
2024/02/04 12:06:07;;;;;;;1.33;1.23;;;;;;;12.34;62.52;95739.06;4919036;29;20249;-84